sensor_id;sensor_type;location;lat;lon;timestamp;P1;durP1;ratioP1;P2;durP2;ratioP2
72575;SDS011;60613;48.658;2.328;2022-10-19T00:01:37;5.97;;;2.30;;
72575;SDS011;60613;48.658;2.328;2022-10-19T00:04:02;5.17;;;2.00;;
72575;SDS011;60613;48.658;2.328;2022-10-19T00:06:29;5.03;;;2.10;;
72575;SDS011;60613;48.658;2.328;2022-10-19T00:08:57;5.40;;;1.97;;
72575;SDS011;60613;48.658;2.328;2022-10-19T00:11:38;5.80;;;2.00;;
72575;SDS011;60613;48.658;2.328;2022-10-19T00:14:06;5.03;;;2.00;;
72575;SDS011;60613;48.658;2.328;2022-10-19T00:16:34;5.55;;;1.98;;
72575;SDS011;60613;48.658;2.328;2022-10-19T00:19:02;5.85;;;2.05;;
72575;SDS011;60613;48.658;2.328;2022-10-19T00:21:31;5.93;;;2.13;;
72575;SDS011;60613;48.658;2.328;2022-10-19T00:23:57;5.55;;;2.17;;
72575;SDS011;60613;48.658;2.328;2022-10-19T00:26:23;5.40;;;1.90;;
72575;SDS011;60613;48.658;2.328;2022-10-19T00:28:49;5.17;;;2.00;;
72575;SDS011;60613;48.658;2.328;2022-10-19T00:31:18;5.45;;;2.10;;
72575;SDS011;60613;48.658;2.328;2022-10-19T00:33:43;4.63;;;2.15;;
72575;SDS011;60613;48.658;2.328;2022-10-19T00:38:49;4.25;;;1.80;;
72575;SDS011;60613;48.658;2.328;2022-10-19T00:41:15;6.30;;;2.10;;
72575;SDS011;60613;48.658;2.328;2022-10-19T00:44:02;4.90;;;1.80;;
72575;SDS011;60613;48.658;2.328;2022-10-19T00:46:35;4.25;;;1.88;;
72575;SDS011;60613;48.658;2.328;2022-10-19T00:49:04;5.00;;;1.90;;
72575;SDS011;60613;48.658;2.328;2022-10-19T00:51:31;5.28;;;2.10;;
72575;SDS011;60613;48.658;2.328;2022-10-19T00:53:59;4.80;;;1.80;;
72575;SDS011;60613;48.658;2.328;2022-10-19T00:56:27;5.45;;;2.08;;
72575;SDS011;60613;48.658;2.328;2022-10-19T00:58:52;5.50;;;2.17;;
72575;SDS011;60613;48.658;2.328;2022-10-19T01:01:19;4.55;;;2.00;;
72575;SDS011;60613;48.658;2.328;2022-10-19T01:03:47;5.88;;;2.17;;
72575;SDS011;60613;48.658;2.328;2022-10-19T01:06:13;5.10;;;2.00;;
72575;SDS011;60613;48.658;2.328;2022-10-19T01:08:41;5.30;;;2.10;;
72575;SDS011;60613;48.658;2.328;2022-10-19T01:14:04;6.60;;;1.90;;
72575;SDS011;60613;48.658;2.328;2022-10-19T01:21:45;5.80;;;2.20;;
72575;SDS011;60613;48.658;2.328;2022-10-19T01:32:27;5.75;;;2.00;;
72575;SDS011;60613;48.658;2.328;2022-10-19T01:34:58;5.32;;;2.10;;
72575;SDS011;60613;48.658;2.328;2022-10-19T01:40:20;4.15;;;1.60;;
72575;SDS011;60613;48.658;2.328;2022-10-19T01:42:55;4.65;;;1.80;;
72575;SDS011;60613;48.658;2.328;2022-10-19T01:45:51;5.25;;;1.90;;
72575;SDS011;60613;48.658;2.328;2022-10-19T01:48:23;6.10;;;1.90;;
72575;SDS011;60613;48.658;2.328;2022-10-19T01:53:59;4.88;;;2.03;;
72575;SDS011;60613;48.658;2.328;2022-10-19T01:56:28;4.65;;;1.85;;
72575;SDS011;60613;48.658;2.328;2022-10-19T01:58:56;4.63;;;1.70;;
72575;SDS011;60613;48.658;2.328;2022-10-19T02:01:25;4.68;;;1.92;;
72575;SDS011;60613;48.658;2.328;2022-10-19T02:03:54;4.77;;;1.70;;
72575;SDS011;60613;48.658;2.328;2022-10-19T02:06:22;3.88;;;1.70;;
72575;SDS011;60613;48.658;2.328;2022-10-19T02:08:49;4.65;;;1.85;;
72575;SDS011;60613;48.658;2.328;2022-10-19T02:11:16;4.40;;;1.67;;
72575;SDS011;60613;48.658;2.328;2022-10-19T02:13:44;5.88;;;1.90;;
72575;SDS011;60613;48.658;2.328;2022-10-19T02:16:16;4.63;;;1.60;;
72575;SDS011;60613;48.658;2.328;2022-10-19T02:18:48;3.75;;;1.70;;
72575;SDS011;60613;48.658;2.328;2022-10-19T02:21:16;4.38;;;1.88;;
72575;SDS011;60613;48.658;2.328;2022-10-19T02:23:43;5.47;;;1.85;;
72575;SDS011;60613;48.658;2.328;2022-10-19T02:26:08;4.05;;;1.60;;
72575;SDS011;60613;48.658;2.328;2022-10-19T02:28:34;4.10;;;1.60;;
72575;SDS011;60613;48.658;2.328;2022-10-19T02:31:01;5.15;;;1.77;;
72575;SDS011;60613;48.658;2.328;2022-10-19T02:33:27;3.83;;;1.80;;
72575;SDS011;60613;48.658;2.328;2022-10-19T02:35:54;5.43;;;1.60;;
72575;SDS011;60613;48.658;2.328;2022-10-19T02:38:21;4.85;;;1.70;;
72575;SDS011;60613;48.658;2.328;2022-10-19T02:40:59;4.47;;;1.77;;
72575;SDS011;60613;48.658;2.328;2022-10-19T02:46:48;4.85;;;1.70;;
72575;SDS011;60613;48.658;2.328;2022-10-19T02:49:32;3.35;;;1.40;;
72575;SDS011;60613;48.658;2.328;2022-10-19T02:52:01;3.85;;;1.70;;
72575;SDS011;60613;48.658;2.328;2022-10-19T02:54:29;4.03;;;1.70;;
72575;SDS011;60613;48.658;2.328;2022-10-19T02:56:55;3.80;;;1.50;;
72575;SDS011;60613;48.658;2.328;2022-10-19T02:59:21;4.07;;;1.55;;
72575;SDS011;60613;48.658;2.328;2022-10-19T03:01:48;3.55;;;1.52;;
72575;SDS011;60613;48.658;2.328;2022-10-19T03:04:13;4.33;;;1.57;;
72575;SDS011;60613;48.658;2.328;2022-10-19T03:06:39;4.15;;;1.70;;
72575;SDS011;60613;48.658;2.328;2022-10-19T03:09:05;4.40;;;1.83;;
72575;SDS011;60613;48.658;2.328;2022-10-19T03:11:31;3.85;;;1.50;;
72575;SDS011;60613;48.658;2.328;2022-10-19T03:13:56;4.43;;;1.67;;
72575;SDS011;60613;48.658;2.328;2022-10-19T03:16:22;4.15;;;1.70;;
72575;SDS011;60613;48.658;2.328;2022-10-19T03:18:48;4.07;;;1.40;;
72575;SDS011;60613;48.658;2.328;2022-10-19T03:21:14;4.03;;;1.60;;
72575;SDS011;60613;48.658;2.328;2022-10-19T03:23:40;4.53;;;1.60;;
72575;SDS011;60613;48.658;2.328;2022-10-19T03:26:06;3.90;;;1.30;;
72575;SDS011;60613;48.658;2.328;2022-10-19T03:28:32;4.05;;;1.77;;
72575;SDS011;60613;48.658;2.328;2022-10-19T03:30:57;4.53;;;1.43;;
72575;SDS011;60613;48.658;2.328;2022-10-19T03:33:23;5.33;;;1.60;;
72575;SDS011;60613;48.658;2.328;2022-10-19T03:35:49;5.37;;;1.70;;
72575;SDS011;60613;48.658;2.328;2022-10-19T03:38:15;4.35;;;1.60;;
72575;SDS011;60613;48.658;2.328;2022-10-19T03:40:41;3.92;;;1.67;;
72575;SDS011;60613;48.658;2.328;2022-10-19T03:43:06;3.13;;;1.20;;
72575;SDS011;60613;48.658;2.328;2022-10-19T03:45:32;3.60;;;1.50;;
72575;SDS011;60613;48.658;2.328;2022-10-19T03:47:58;4.80;;;1.60;;
72575;SDS011;60613;48.658;2.328;2022-10-19T03:50:24;3.77;;;1.63;;
72575;SDS011;60613;48.658;2.328;2022-10-19T03:52:49;3.90;;;1.60;;
72575;SDS011;60613;48.658;2.328;2022-10-19T03:55:15;3.75;;;1.60;;
72575;SDS011;60613;48.658;2.328;2022-10-19T03:57:41;3.55;;;1.60;;
72575;SDS011;60613;48.658;2.328;2022-10-19T04:00:08;4.30;;;1.63;;
72575;SDS011;60613;48.658;2.328;2022-10-19T04:02:34;4.38;;;1.50;;
72575;SDS011;60613;48.658;2.328;2022-10-19T04:05:00;3.58;;;1.40;;
72575;SDS011;60613;48.658;2.328;2022-10-19T04:07:26;3.60;;;1.50;;
72575;SDS011;60613;48.658;2.328;2022-10-19T04:09:51;4.57;;;1.53;;
72575;SDS011;60613;48.658;2.328;2022-10-19T04:12:17;2.90;;;1.30;;
72575;SDS011;60613;48.658;2.328;2022-10-19T04:14:42;2.80;;;1.40;;
72575;SDS011;60613;48.658;2.328;2022-10-19T04:17:08;4.13;;;1.50;;
72575;SDS011;60613;48.658;2.328;2022-10-19T04:19:35;3.38;;;1.60;;
72575;SDS011;60613;48.658;2.328;2022-10-19T04:22:01;3.30;;;1.37;;
72575;SDS011;60613;48.658;2.328;2022-10-19T04:24:26;4.03;;;1.73;;
72575;SDS011;60613;48.658;2.328;2022-10-19T04:26:52;3.03;;;1.47;;
72575;SDS011;60613;48.658;2.328;2022-10-19T04:29:19;4.25;;;1.40;;
72575;SDS011;60613;48.658;2.328;2022-10-19T04:31:50;3.78;;;1.60;;
72575;SDS011;60613;48.658;2.328;2022-10-19T04:34:17;4.10;;;1.60;;
72575;SDS011;60613;48.658;2.328;2022-10-19T04:36:43;3.05;;;1.35;;
72575;SDS011;60613;48.658;2.328;2022-10-19T04:39:09;3.17;;;1.30;;
72575;SDS011;60613;48.658;2.328;2022-10-19T04:41:36;3.67;;;1.33;;
72575;SDS011;60613;48.658;2.328;2022-10-19T04:44:02;3.40;;;1.42;;
72575;SDS011;60613;48.658;2.328;2022-10-19T04:46:30;3.30;;;1.30;;
72575;SDS011;60613;48.658;2.328;2022-10-19T04:48:56;4.18;;;1.30;;
72575;SDS011;60613;48.658;2.328;2022-10-19T04:51:22;3.67;;;1.20;;
72575;SDS011;60613;48.658;2.328;2022-10-19T04:53:49;3.22;;;1.35;;
72575;SDS011;60613;48.658;2.328;2022-10-19T04:56:17;3.40;;;1.30;;
72575;SDS011;60613;48.658;2.328;2022-10-19T04:58:45;3.70;;;1.42;;
72575;SDS011;60613;48.658;2.328;2022-10-19T05:03:38;3.40;;;1.47;;
72575;SDS011;60613;48.658;2.328;2022-10-19T05:06:05;3.72;;;1.30;;
72575;SDS011;60613;48.658;2.328;2022-10-19T05:08:31;4.00;;;1.60;;
72575;SDS011;60613;48.658;2.328;2022-10-19T05:11:08;3.10;;;1.30;;
72575;SDS011;60613;48.658;2.328;2022-10-19T05:13:35;3.10;;;1.35;;
72575;SDS011;60613;48.658;2.328;2022-10-19T05:16:02;2.90;;;1.20;;
72575;SDS011;60613;48.658;2.328;2022-10-19T05:18:30;3.25;;;1.35;;
72575;SDS011;60613;48.658;2.328;2022-10-19T05:21:09;7.45;;;1.30;;
72575;SDS011;60613;48.658;2.328;2022-10-19T05:23:36;3.97;;;1.45;;
72575;SDS011;60613;48.658;2.328;2022-10-19T05:28:41;7.80;;;1.50;;
72575;SDS011;60613;48.658;2.328;2022-10-19T05:31:12;2.95;;;1.30;;
72575;SDS011;60613;48.658;2.328;2022-10-19T05:33:42;3.20;;;1.50;;
72575;SDS011;60613;48.658;2.328;2022-10-19T05:36:24;3.67;;;1.35;;
72575;SDS011;60613;48.658;2.328;2022-10-19T05:38:53;3.80;;;1.50;;
72575;SDS011;60613;48.658;2.328;2022-10-19T05:41:20;3.33;;;1.50;;
72575;SDS011;60613;48.658;2.328;2022-10-19T05:43:46;4.32;;;1.45;;
72575;SDS011;60613;48.658;2.328;2022-10-19T06:02:36;3.70;;;1.23;;
72575;SDS011;60613;48.658;2.328;2022-10-19T06:05:02;3.58;;;1.40;;
72575;SDS011;60613;48.658;2.328;2022-10-19T06:07:28;3.37;;;1.47;;
72575;SDS011;60613;48.658;2.328;2022-10-19T06:09:53;3.42;;;1.20;;
72575;SDS011;60613;48.658;2.328;2022-10-19T06:12:19;3.60;;;1.30;;
72575;SDS011;60613;48.658;2.328;2022-10-19T06:14:44;3.80;;;1.30;;
72575;SDS011;60613;48.658;2.328;2022-10-19T06:17:10;2.67;;;1.23;;
72575;SDS011;60613;48.658;2.328;2022-10-19T06:19:36;3.03;;;1.30;;
72575;SDS011;60613;48.658;2.328;2022-10-19T06:22:03;3.50;;;1.40;;
72575;SDS011;60613;48.658;2.328;2022-10-19T06:24:28;4.73;;;1.43;;
72575;SDS011;60613;48.658;2.328;2022-10-19T06:26:54;7.70;;;2.93;;
72575;SDS011;60613;48.658;2.328;2022-10-19T06:29:20;7.70;;;3.95;;
72575;SDS011;60613;48.658;2.328;2022-10-19T06:31:46;9.50;;;3.97;;
72575;SDS011;60613;48.658;2.328;2022-10-19T06:34:12;9.85;;;4.25;;
72575;SDS011;60613;48.658;2.328;2022-10-19T06:36:37;9.50;;;4.43;;
72575;SDS011;60613;48.658;2.328;2022-10-19T06:39:03;8.85;;;4.18;;
72575;SDS011;60613;48.658;2.328;2022-10-19T06:41:29;10.93;;;4.30;;
72575;SDS011;60613;48.658;2.328;2022-10-19T06:43:55;8.90;;;3.57;;
72575;SDS011;60613;48.658;2.328;2022-10-19T06:46:22;9.13;;;4.07;;
72575;SDS011;60613;48.658;2.328;2022-10-19T06:48:52;7.65;;;3.90;;
72575;SDS011;60613;48.658;2.328;2022-10-19T06:51:19;10.32;;;4.00;;
72575;SDS011;60613;48.658;2.328;2022-10-19T06:53:46;9.07;;;3.93;;
72575;SDS011;60613;48.658;2.328;2022-10-19T06:56:12;7.78;;;4.07;;
72575;SDS011;60613;48.658;2.328;2022-10-19T06:58:37;10.93;;;4.15;;
72575;SDS011;60613;48.658;2.328;2022-10-19T07:01:03;9.53;;;4.33;;
72575;SDS011;60613;48.658;2.328;2022-10-19T07:03:34;8.68;;;3.20;;
72575;SDS011;60613;48.658;2.328;2022-10-19T07:06:01;8.15;;;2.90;;
72575;SDS011;60613;48.658;2.328;2022-10-19T07:08:29;10.13;;;2.70;;
72575;SDS011;60613;48.658;2.328;2022-10-19T07:10:56;8.65;;;2.58;;
72575;SDS011;60613;48.658;2.328;2022-10-19T07:13:24;8.75;;;2.63;;
72575;SDS011;60613;48.658;2.328;2022-10-19T07:15:55;6.35;;;2.60;;
72575;SDS011;60613;48.658;2.328;2022-10-19T07:18:22;6.35;;;2.40;;
72575;SDS011;60613;48.658;2.328;2022-10-19T07:20:55;5.53;;;2.13;;
72575;SDS011;60613;48.658;2.328;2022-10-19T07:23:26;6.32;;;2.10;;
72575;SDS011;60613;48.658;2.328;2022-10-19T07:25:53;6.47;;;2.20;;
72575;SDS011;60613;48.658;2.328;2022-10-19T07:28:24;5.50;;;2.03;;
72575;SDS011;60613;48.658;2.328;2022-10-19T07:30:49;5.37;;;2.07;;
72575;SDS011;60613;48.658;2.328;2022-10-19T07:33:15;7.05;;;2.15;;
72575;SDS011;60613;48.658;2.328;2022-10-19T07:35:40;5.23;;;1.90;;
72575;SDS011;60613;48.658;2.328;2022-10-19T07:38:06;6.65;;;1.90;;
72575;SDS011;60613;48.658;2.328;2022-10-19T07:40:32;5.57;;;1.90;;
72575;SDS011;60613;48.658;2.328;2022-10-19T07:42:58;4.68;;;1.90;;
72575;SDS011;60613;48.658;2.328;2022-10-19T07:45:24;5.10;;;2.10;;
72575;SDS011;60613;48.658;2.328;2022-10-19T07:47:49;5.53;;;2.10;;
72575;SDS011;60613;48.658;2.328;2022-10-19T07:50:15;6.90;;;2.07;;
72575;SDS011;60613;48.658;2.328;2022-10-19T07:52:41;7.50;;;2.13;;
72575;SDS011;60613;48.658;2.328;2022-10-19T07:55:06;6.27;;;2.17;;
72575;SDS011;60613;48.658;2.328;2022-10-19T07:57:32;6.10;;;2.00;;
72575;SDS011;60613;48.658;2.328;2022-10-19T07:59:58;5.65;;;2.08;;
72575;SDS011;60613;48.658;2.328;2022-10-19T08:02:24;5.90;;;1.90;;
72575;SDS011;60613;48.658;2.328;2022-10-19T08:04:49;7.07;;;2.13;;
72575;SDS011;60613;48.658;2.328;2022-10-19T08:07:15;4.95;;;1.95;;
72575;SDS011;60613;48.658;2.328;2022-10-19T08:09:40;6.00;;;1.90;;
72575;SDS011;60613;48.658;2.328;2022-10-19T08:12:06;6.72;;;2.17;;
72575;SDS011;60613;48.658;2.328;2022-10-19T08:14:32;7.20;;;2.20;;
72575;SDS011;60613;48.658;2.328;2022-10-19T08:16:58;6.15;;;2.20;;
72575;SDS011;60613;48.658;2.328;2022-10-19T08:19:24;6.05;;;2.13;;
72575;SDS011;60613;48.658;2.328;2022-10-19T08:21:49;6.13;;;2.23;;
72575;SDS011;60613;48.658;2.328;2022-10-19T08:24:16;7.45;;;2.30;;
72575;SDS011;60613;48.658;2.328;2022-10-19T08:26:42;8.17;;;1.90;;
72575;SDS011;60613;48.658;2.328;2022-10-19T08:31:36;7.15;;;2.28;;
72575;SDS011;60613;48.658;2.328;2022-10-19T08:34:02;8.07;;;2.50;;
72575;SDS011;60613;48.658;2.328;2022-10-19T08:36:28;9.43;;;2.40;;
72575;SDS011;60613;48.658;2.328;2022-10-19T08:38:55;7.28;;;2.20;;
72575;SDS011;60613;48.658;2.328;2022-10-19T08:41:24;7.32;;;2.30;;
72575;SDS011;60613;48.658;2.328;2022-10-19T08:49:49;8.30;;;2.40;;
72575;SDS011;60613;48.658;2.328;2022-10-19T08:52:16;6.88;;;2.28;;
72575;SDS011;60613;48.658;2.328;2022-10-19T08:55:19;6.35;;;2.50;;
72575;SDS011;60613;48.658;2.328;2022-10-19T09:03:44;6.27;;;2.40;;
72575;SDS011;60613;48.658;2.328;2022-10-19T09:09:09;6.70;;;2.10;;
72575;SDS011;60613;48.658;2.328;2022-10-19T09:11:37;4.18;;;1.90;;
72575;SDS011;60613;48.658;2.328;2022-10-19T09:16:49;5.83;;;2.10;;
72575;SDS011;60613;48.658;2.328;2022-10-19T09:19:21;6.90;;;2.20;;
72575;SDS011;60613;48.658;2.328;2022-10-19T09:21:50;5.72;;;2.03;;
72575;SDS011;60613;48.658;2.328;2022-10-19T09:24:26;5.17;;;2.03;;
72575;SDS011;60613;48.658;2.328;2022-10-19T09:26:54;5.82;;;2.00;;
72575;SDS011;60613;48.658;2.328;2022-10-19T09:29:36;7.57;;;2.88;;
72575;SDS011;60613;48.658;2.328;2022-10-19T09:32:18;6.95;;;3.05;;
72575;SDS011;60613;48.658;2.328;2022-10-19T09:34:58;6.40;;;3.05;;
72575;SDS011;60613;48.658;2.328;2022-10-19T09:37:30;9.47;;;3.73;;
72575;SDS011;60613;48.658;2.328;2022-10-19T09:40:01;7.72;;;3.20;;
72575;SDS011;60613;48.658;2.328;2022-10-19T09:42:30;9.32;;;4.03;;
72575;SDS011;60613;48.658;2.328;2022-10-19T09:44:58;11.68;;;4.50;;
72575;SDS011;60613;48.658;2.328;2022-10-19T09:49:50;10.83;;;5.60;;
72575;SDS011;60613;48.658;2.328;2022-10-19T09:55:13;14.63;;;8.00;;
72575;SDS011;60613;48.658;2.328;2022-10-19T09:57:46;16.87;;;8.17;;
72575;SDS011;60613;48.658;2.328;2022-10-19T10:02:53;16.05;;;8.95;;
72575;SDS011;60613;48.658;2.328;2022-10-19T10:05:20;14.65;;;8.40;;
72575;SDS011;60613;48.658;2.328;2022-10-19T10:07:57;14.35;;;7.75;;
72575;SDS011;60613;48.658;2.328;2022-10-19T10:10:23;15.07;;;7.43;;
72575;SDS011;60613;48.658;2.328;2022-10-19T10:12:54;11.38;;;6.55;;
72575;SDS011;60613;48.658;2.328;2022-10-19T10:15:22;13.85;;;7.07;;
72575;SDS011;60613;48.658;2.328;2022-10-19T10:17:50;11.68;;;6.53;;
72575;SDS011;60613;48.658;2.328;2022-10-19T10:20:17;11.63;;;6.63;;
72575;SDS011;60613;48.658;2.328;2022-10-19T10:22:58;12.60;;;6.38;;
72575;SDS011;60613;48.658;2.328;2022-10-19T10:25:30;12.10;;;6.60;;
72575;SDS011;60613;48.658;2.328;2022-10-19T10:27:59;13.23;;;6.55;;
72575;SDS011;60613;48.658;2.328;2022-10-19T10:30:28;12.98;;;6.10;;
72575;SDS011;60613;48.658;2.328;2022-10-19T10:33:00;11.27;;;6.00;;
72575;SDS011;60613;48.658;2.328;2022-10-19T10:35:29;10.57;;;5.80;;
72575;SDS011;60613;48.658;2.328;2022-10-19T10:38:42;10.82;;;5.28;;
72575;SDS011;60613;48.658;2.328;2022-10-19T10:40:51;10.63;;;5.03;;
72575;SDS011;60613;48.658;2.328;2022-10-19T10:43:33;11.88;;;5.30;;
72575;SDS011;60613;48.658;2.328;2022-10-19T10:46:06;10.93;;;5.40;;
72575;SDS011;60613;48.658;2.328;2022-10-19T10:48:42;9.38;;;4.72;;
72575;SDS011;60613;48.658;2.328;2022-10-19T10:54:14;9.55;;;4.70;;
72575;SDS011;60613;48.658;2.328;2022-10-19T10:56:54;10.63;;;4.57;;
72575;SDS011;60613;48.658;2.328;2022-10-19T10:59:50;8.23;;;4.33;;
72575;SDS011;60613;48.658;2.328;2022-10-19T11:07:52;7.53;;;3.95;;
72575;SDS011;60613;48.658;2.328;2022-10-19T11:10:27;9.05;;;3.80;;
72575;SDS011;60613;48.658;2.328;2022-10-19T11:15:52;8.98;;;4.00;;
72575;SDS011;60613;48.658;2.328;2022-10-19T11:18:29;8.68;;;3.55;;
72575;SDS011;60613;48.658;2.328;2022-10-19T11:26:35;7.50;;;3.10;;
72575;SDS011;60613;48.658;2.328;2022-10-19T11:31:47;7.43;;;3.17;;
72575;SDS011;60613;48.658;2.328;2022-10-19T11:37:16;7.45;;;2.80;;
72575;SDS011;60613;48.658;2.328;2022-10-19T11:39:48;7.23;;;2.93;;
72575;SDS011;60613;48.658;2.328;2022-10-19T11:42:37;6.93;;;3.05;;
72575;SDS011;60613;48.658;2.328;2022-10-19T11:50:43;7.93;;;3.00;;
72575;SDS011;60613;48.658;2.328;2022-10-19T11:56:10;8.02;;;2.70;;
72575;SDS011;60613;48.658;2.328;2022-10-19T11:58:46;7.65;;;2.90;;
72575;SDS011;60613;48.658;2.328;2022-10-19T12:14:47;5.82;;;2.42;;
72575;SDS011;60613;48.658;2.328;2022-10-19T12:17:22;7.07;;;2.65;;
72575;SDS011;60613;48.658;2.328;2022-10-19T12:19:57;7.90;;;2.70;;
72575;SDS011;60613;48.658;2.328;2022-10-19T12:22:27;6.72;;;2.42;;
72575;SDS011;60613;48.658;2.328;2022-10-19T12:24:54;6.18;;;2.30;;
72575;SDS011;60613;48.658;2.328;2022-10-19T12:27:25;6.05;;;2.35;;
72575;SDS011;60613;48.658;2.328;2022-10-19T12:29:57;7.65;;;2.63;;
72575;SDS011;60613;48.658;2.328;2022-10-19T12:32:28;6.93;;;2.57;;
72575;SDS011;60613;48.658;2.328;2022-10-19T12:37:47;7.63;;;3.33;;
72575;SDS011;60613;48.658;2.328;2022-10-19T12:43:18;9.07;;;4.38;;
72575;SDS011;60613;48.658;2.328;2022-10-19T12:51:58;11.88;;;3.40;;
72575;SDS011;60613;48.658;2.328;2022-10-19T12:54:26;7.75;;;3.20;;
72575;SDS011;60613;48.658;2.328;2022-10-19T12:56:54;7.07;;;3.00;;
72575;SDS011;60613;48.658;2.328;2022-10-19T12:59:22;8.10;;;3.00;;
72575;SDS011;60613;48.658;2.328;2022-10-19T13:01:50;7.97;;;3.20;;
72575;SDS011;60613;48.658;2.328;2022-10-19T13:06:47;7.90;;;3.13;;
72575;SDS011;60613;48.658;2.328;2022-10-19T13:14:56;6.22;;;2.80;;
72575;SDS011;60613;48.658;2.328;2022-10-19T13:25:34;5.90;;;2.60;;
72575;SDS011;60613;48.658;2.328;2022-10-19T13:38:29;5.97;;;2.47;;
72575;SDS011;60613;48.658;2.328;2022-10-19T13:41:18;5.70;;;2.60;;
72575;SDS011;60613;48.658;2.328;2022-10-19T14:04:50;5.67;;;2.37;;
72575;SDS011;60613;48.658;2.328;2022-10-19T14:07:45;7.90;;;2.28;;
72575;SDS011;60613;48.658;2.328;2022-10-19T14:10:32;5.93;;;2.20;;
72575;SDS011;60613;48.658;2.328;2022-10-19T14:12:59;6.28;;;2.50;;
72575;SDS011;60613;48.658;2.328;2022-10-19T14:15:30;4.72;;;2.33;;
72575;SDS011;60613;48.658;2.328;2022-10-19T14:17:57;4.57;;;2.10;;
72575;SDS011;60613;48.658;2.328;2022-10-19T14:23:14;6.05;;;2.25;;
72575;SDS011;60613;48.658;2.328;2022-10-19T14:25:48;6.50;;;2.33;;
72575;SDS011;60613;48.658;2.328;2022-10-19T14:28:15;7.40;;;2.90;;
72575;SDS011;60613;48.658;2.328;2022-10-19T14:30:41;7.30;;;2.90;;
72575;SDS011;60613;48.658;2.328;2022-10-19T14:33:07;9.85;;;3.22;;
72575;SDS011;60613;48.658;2.328;2022-10-19T14:35:36;6.78;;;3.20;;
72575;SDS011;60613;48.658;2.328;2022-10-19T14:38:06;8.60;;;3.27;;
72575;SDS011;60613;48.658;2.328;2022-10-19T14:40:39;8.38;;;3.33;;
72575;SDS011;60613;48.658;2.328;2022-10-19T14:43:19;10.15;;;3.50;;
72575;SDS011;60613;48.658;2.328;2022-10-19T14:46:23;9.35;;;3.03;;
72575;SDS011;60613;48.658;2.328;2022-10-19T14:48:43;6.07;;;3.17;;
72575;SDS011;60613;48.658;2.328;2022-10-19T14:54:10;7.93;;;2.97;;
72575;SDS011;60613;48.658;2.328;2022-10-19T14:59:35;8.13;;;2.80;;
72575;SDS011;60613;48.658;2.328;2022-10-19T15:02:22;8.50;;;2.70;;
72575;SDS011;60613;48.658;2.328;2022-10-19T15:04:57;9.67;;;2.77;;
72575;SDS011;60613;48.658;2.328;2022-10-19T15:07:25;5.43;;;2.47;;
72575;SDS011;60613;48.658;2.328;2022-10-19T15:10:04;7.13;;;2.53;;
72575;SDS011;60613;48.658;2.328;2022-10-19T15:12:39;8.32;;;2.85;;
72575;SDS011;60613;48.658;2.328;2022-10-19T15:15:12;9.65;;;3.08;;
72575;SDS011;60613;48.658;2.328;2022-10-19T15:17:49;8.90;;;2.73;;
72575;SDS011;60613;48.658;2.328;2022-10-19T15:22:52;6.22;;;3.03;;
72575;SDS011;60613;48.658;2.328;2022-10-19T15:25:24;8.20;;;3.00;;
72575;SDS011;60613;48.658;2.328;2022-10-19T15:27:49;6.97;;;2.72;;
72575;SDS011;60613;48.658;2.328;2022-10-19T15:32:43;6.93;;;2.75;;
72575;SDS011;60613;48.658;2.328;2022-10-19T15:35:15;7.25;;;2.70;;
72575;SDS011;60613;48.658;2.328;2022-10-19T15:37:46;8.60;;;2.75;;
72575;SDS011;60613;48.658;2.328;2022-10-19T15:40:18;6.30;;;2.60;;
72575;SDS011;60613;48.658;2.328;2022-10-19T15:42:48;6.57;;;2.60;;
72575;SDS011;60613;48.658;2.328;2022-10-19T15:45:33;7.27;;;3.03;;
72575;SDS011;60613;48.658;2.328;2022-10-19T15:50:50;7.47;;;2.65;;
72575;SDS011;60613;48.658;2.328;2022-10-19T15:53:16;6.75;;;2.72;;
72575;SDS011;60613;48.658;2.328;2022-10-19T15:55:42;6.55;;;2.47;;
72575;SDS011;60613;48.658;2.328;2022-10-19T15:58:09;5.07;;;2.60;;
72575;SDS011;60613;48.658;2.328;2022-10-19T16:00:37;5.83;;;2.70;;
72575;SDS011;60613;48.658;2.328;2022-10-19T16:03:03;6.93;;;2.42;;
72575;SDS011;60613;48.658;2.328;2022-10-19T16:05:29;6.82;;;2.70;;
72575;SDS011;60613;48.658;2.328;2022-10-19T16:07:55;6.47;;;2.87;;
72575;SDS011;60613;48.658;2.328;2022-10-19T16:10:22;7.30;;;2.70;;
72575;SDS011;60613;48.658;2.328;2022-10-19T16:12:50;5.65;;;2.60;;
72575;SDS011;60613;48.658;2.328;2022-10-19T16:15:17;7.70;;;2.80;;
72575;SDS011;60613;48.658;2.328;2022-10-19T16:17:48;6.00;;;2.42;;
72575;SDS011;60613;48.658;2.328;2022-10-19T16:20:16;6.15;;;2.58;;
72575;SDS011;60613;48.658;2.328;2022-10-19T16:22:42;5.33;;;2.53;;
72575;SDS011;60613;48.658;2.328;2022-10-19T16:25:09;5.88;;;2.50;;
72575;SDS011;60613;48.658;2.328;2022-10-19T16:27:35;6.55;;;2.45;;
72575;SDS011;60613;48.658;2.328;2022-10-19T16:30:01;6.77;;;2.73;;
72575;SDS011;60613;48.658;2.328;2022-10-19T16:32:28;7.22;;;2.78;;
72575;SDS011;60613;48.658;2.328;2022-10-19T16:34:53;6.50;;;2.85;;
72575;SDS011;60613;48.658;2.328;2022-10-19T16:37:19;6.33;;;2.67;;
72575;SDS011;60613;48.658;2.328;2022-10-19T16:39:44;6.03;;;2.73;;
72575;SDS011;60613;48.658;2.328;2022-10-19T16:42:10;5.67;;;2.47;;
72575;SDS011;60613;48.658;2.328;2022-10-19T16:44:36;5.33;;;2.20;;
72575;SDS011;60613;48.658;2.328;2022-10-19T16:47:01;6.63;;;2.30;;
72575;SDS011;60613;48.658;2.328;2022-10-19T16:49:27;6.47;;;2.80;;
72575;SDS011;60613;48.658;2.328;2022-10-19T16:51:53;6.35;;;2.63;;
72575;SDS011;60613;48.658;2.328;2022-10-19T16:54:18;6.40;;;2.70;;
72575;SDS011;60613;48.658;2.328;2022-10-19T16:56:44;6.03;;;2.40;;
72575;SDS011;60613;48.658;2.328;2022-10-19T16:59:12;6.83;;;2.40;;
72575;SDS011;60613;48.658;2.328;2022-10-19T17:01:40;7.90;;;2.67;;
72575;SDS011;60613;48.658;2.328;2022-10-19T17:04:07;6.05;;;2.60;;
72575;SDS011;60613;48.658;2.328;2022-10-19T17:06:34;6.25;;;2.47;;
72575;SDS011;60613;48.658;2.328;2022-10-19T17:08:59;6.70;;;2.80;;
72575;SDS011;60613;48.658;2.328;2022-10-19T17:11:32;7.68;;;2.63;;
72575;SDS011;60613;48.658;2.328;2022-10-19T17:14:01;7.03;;;2.60;;
72575;SDS011;60613;48.658;2.328;2022-10-19T17:16:32;7.75;;;2.45;;
72575;SDS011;60613;48.658;2.328;2022-10-19T17:18:59;7.10;;;2.40;;
72575;SDS011;60613;48.658;2.328;2022-10-19T17:21:26;6.72;;;2.70;;
72575;SDS011;60613;48.658;2.328;2022-10-19T17:23:54;7.32;;;2.42;;
72575;SDS011;60613;48.658;2.328;2022-10-19T17:26:24;6.78;;;2.60;;
72575;SDS011;60613;48.658;2.328;2022-10-19T17:28:51;5.68;;;2.28;;
72575;SDS011;60613;48.658;2.328;2022-10-19T17:31:17;6.30;;;2.40;;
72575;SDS011;60613;48.658;2.328;2022-10-19T17:33:43;6.57;;;2.33;;
72575;SDS011;60613;48.658;2.328;2022-10-19T17:38:39;6.55;;;2.65;;
72575;SDS011;60613;48.658;2.328;2022-10-19T17:41:09;6.05;;;2.55;;
72575;SDS011;60613;48.658;2.328;2022-10-19T17:43:37;6.30;;;2.40;;
72575;SDS011;60613;48.658;2.328;2022-10-19T17:46:04;6.28;;;2.53;;
72575;SDS011;60613;48.658;2.328;2022-10-19T17:48:33;6.03;;;2.80;;
72575;SDS011;60613;48.658;2.328;2022-10-19T17:51:00;6.78;;;2.42;;
72575;SDS011;60613;48.658;2.328;2022-10-19T17:53:40;6.00;;;2.50;;
72575;SDS011;60613;48.658;2.328;2022-10-19T17:56:07;6.77;;;2.57;;
72575;SDS011;60613;48.658;2.328;2022-10-19T17:58:35;5.60;;;2.47;;
72575;SDS011;60613;48.658;2.328;2022-10-19T18:01:01;6.65;;;2.60;;
72575;SDS011;60613;48.658;2.328;2022-10-19T18:03:28;6.13;;;2.60;;
72575;SDS011;60613;48.658;2.328;2022-10-19T18:08:22;7.47;;;2.70;;
72575;SDS011;60613;48.658;2.328;2022-10-19T18:10:47;6.25;;;2.60;;
72575;SDS011;60613;48.658;2.328;2022-10-19T18:13:21;6.82;;;2.80;;
72575;SDS011;60613;48.658;2.328;2022-10-19T18:15:47;6.40;;;2.50;;
72575;SDS011;60613;48.658;2.328;2022-10-19T18:18:13;6.45;;;2.55;;
72575;SDS011;60613;48.658;2.328;2022-10-19T18:20:39;6.43;;;2.40;;